sensor_id;sensor_type;location;lat;lon;timestamp;pressure;altitude;pressure_sealevel;temperature
13570;BMP180;6856;51.460;7.158;2023-04-24T00:00:00;98931.00;;;15.40
13570;BMP180;6856;51.460;7.158;2023-04-24T00:02:37;98917.00;;;15.40
13570;BMP180;6856;51.460;7.158;2023-04-24T00:05:13;98921.00;;;15.40
13570;BMP180;6856;51.460;7.158;2023-04-24T00:07:47;98921.00;;;15.40
13570;BMP180;6856;51.460;7.158;2023-04-24T00:10:24;98943.00;;;15.40
13570;BMP180;6856;51.460;7.158;2023-04-24T00:12:58;98924.00;;;15.40
13570;BMP180;6856;51.460;7.158;2023-04-24T00:15:32;98921.00;;;15.40
13570;BMP180;6856;51.460;7.158;2023-04-24T00:18:07;98918.00;;;15.40
13570;BMP180;6856;51.460;7.158;2023-04-24T00:20:41;98914.00;;;15.30
13570;BMP180;6856;51.460;7.158;2023-04-24T00:23:16;98918.00;;;15.30
13570;BMP180;6856;51.460;7.158;2023-04-24T00:25:49;98916.00;;;15.30
13570;BMP180;6856;51.460;7.158;2023-04-24T00:28:23;98918.00;;;15.30
13570;BMP180;6856;51.460;7.158;2023-04-24T00:30:57;98927.00;;;15.20
13570;BMP180;6856;51.460;7.158;2023-04-24T00:33:32;98925.00;;;15.20
13570;BMP180;6856;51.460;7.158;2023-04-24T00:36:15;98926.00;;;15.30
13570;BMP180;6856;51.460;7.158;2023-04-24T00:38:51;98915.00;;;15.20
13570;BMP180;6856;51.460;7.158;2023-04-24T00:41:25;98926.00;;;15.20
13570;BMP180;6856;51.460;7.158;2023-04-24T00:43:59;98928.00;;;14.90
13570;BMP180;6856;51.460;7.158;2023-04-24T00:46:33;98930.00;;;15.10
13570;BMP180;6856;51.460;7.158;2023-04-24T00:49:15;98928.00;;;15.10
13570;BMP180;6856;51.460;7.158;2023-04-24T00:51:49;98938.00;;;15.00
13570;BMP180;6856;51.460;7.158;2023-04-24T00:54:23;98933.00;;;15.00
13570;BMP180;6856;51.460;7.158;2023-04-24T00:56:57;98923.00;;;15.00
13570;BMP180;6856;51.460;7.158;2023-04-24T00:59:34;98932.00;;;15.00
13570;BMP180;6856;51.460;7.158;2023-04-24T01:02:10;98933.00;;;14.90
13570;BMP180;6856;51.460;7.158;2023-04-24T01:04:46;98928.00;;;14.90
13570;BMP180;6856;51.460;7.158;2023-04-24T01:07:20;98918.00;;;14.80
13570;BMP180;6856;51.460;7.158;2023-04-24T01:09:58;98927.00;;;14.80
13570;BMP180;6856;51.460;7.158;2023-04-24T01:12:32;98930.00;;;14.80
13570;BMP180;6856;51.460;7.158;2023-04-24T01:15:08;98929.00;;;14.70
13570;BMP180;6856;51.460;7.158;2023-04-24T01:17:42;98922.00;;;14.70
13570;BMP180;6856;51.460;7.158;2023-04-24T01:20:17;98926.00;;;14.60
13570;BMP180;6856;51.460;7.158;2023-04-24T01:22:59;98932.00;;;14.60
13570;BMP180;6856;51.460;7.158;2023-04-24T01:25:34;98916.00;;;14.60
13570;BMP180;6856;51.460;7.158;2023-04-24T01:28:08;98929.00;;;14.60
13570;BMP180;6856;51.460;7.158;2023-04-24T01:30:42;98935.00;;;14.60
13570;BMP180;6856;51.460;7.158;2023-04-24T01:33:16;98930.00;;;14.50
13570;BMP180;6856;51.460;7.158;2023-04-24T01:35:51;98930.00;;;14.50
13570;BMP180;6856;51.460;7.158;2023-04-24T01:38:27;98933.00;;;14.50
13570;BMP180;6856;51.460;7.158;2023-04-24T01:41:01;98925.00;;;14.50
13570;BMP180;6856;51.460;7.158;2023-04-24T01:43:35;98902.00;;;14.40
13570;BMP180;6856;51.460;7.158;2023-04-24T01:46:20;98937.00;;;14.40
13570;BMP180;6856;51.460;7.158;2023-04-24T01:48:53;98930.00;;;14.30
13570;BMP180;6856;51.460;7.158;2023-04-24T01:51:28;98929.00;;;14.30
13570;BMP180;6856;51.460;7.158;2023-04-24T01:54:04;98935.00;;;14.30
13570;BMP180;6856;51.460;7.158;2023-04-24T01:56:41;98909.00;;;14.30
13570;BMP180;6856;51.460;7.158;2023-04-24T01:59:17;98932.00;;;14.30
13570;BMP180;6856;51.460;7.158;2023-04-24T02:01:52;98902.00;;;14.20
13570;BMP180;6856;51.460;7.158;2023-04-24T02:04:28;98929.00;;;14.20
13570;BMP180;6856;51.460;7.158;2023-04-24T02:07:05;98934.00;;;14.20
13570;BMP180;6856;51.460;7.158;2023-04-24T02:09:41;98926.00;;;14.10
13570;BMP180;6856;51.460;7.158;2023-04-24T02:12:16;98927.00;;;14.10
13570;BMP180;6856;51.460;7.158;2023-04-24T02:14:50;98929.00;;;14.00
13570;BMP180;6856;51.460;7.158;2023-04-24T02:17:26;98944.00;;;14.00
13570;BMP180;6856;51.460;7.158;2023-04-24T02:20:00;98943.00;;;14.00
13570;BMP180;6856;51.460;7.158;2023-04-24T02:22:34;98945.00;;;13.90
13570;BMP180;6856;51.460;7.158;2023-04-24T02:25:09;98946.00;;;13.90
13570;BMP180;6856;51.460;7.158;2023-04-24T02:27:43;98941.00;;;13.80
13570;BMP180;6856;51.460;7.158;2023-04-24T02:30:18;98933.00;;;13.80
13570;BMP180;6856;51.460;7.158;2023-04-24T02:32:52;98931.00;;;13.80
13570;BMP180;6856;51.460;7.158;2023-04-24T02:35:26;98937.00;;;13.70
13570;BMP180;6856;51.460;7.158;2023-04-24T02:38:00;98941.00;;;13.70
13570;BMP180;6856;51.460;7.158;2023-04-24T02:40:37;98949.00;;;13.60
13570;BMP180;6856;51.460;7.158;2023-04-24T02:43:12;98939.00;;;13.60
13570;BMP180;6856;51.460;7.158;2023-04-24T02:45:46;98916.00;;;13.50
13570;BMP180;6856;51.460;7.158;2023-04-24T02:48:21;98943.00;;;13.50
13570;BMP180;6856;51.460;7.158;2023-04-24T02:50:55;98938.00;;;13.50
13570;BMP180;6856;51.460;7.158;2023-04-24T02:53:30;98946.00;;;13.50
13570;BMP180;6856;51.460;7.158;2023-04-24T02:56:05;98941.00;;;13.50
13570;BMP180;6856;51.460;7.158;2023-04-24T02:58:39;98945.00;;;13.40
13570;BMP180;6856;51.460;7.158;2023-04-24T03:01:14;98936.00;;;13.50
13570;BMP180;6856;51.460;7.158;2023-04-24T03:03:48;98948.00;;;13.50
13570;BMP180;6856;51.460;7.158;2023-04-24T03:06:26;98948.00;;;13.40
13570;BMP180;6856;51.460;7.158;2023-04-24T03:09:01;98950.00;;;13.40
13570;BMP180;6856;51.460;7.158;2023-04-24T03:11:37;98950.00;;;13.40
13570;BMP180;6856;51.460;7.158;2023-04-24T03:14:10;98955.00;;;13.40
13570;BMP180;6856;51.460;7.158;2023-04-24T03:16:47;98960.00;;;13.40
13570;BMP180;6856;51.460;7.158;2023-04-24T03:19:22;98951.00;;;13.40
13570;BMP180;6856;51.460;7.158;2023-04-24T03:21:55;98958.00;;;13.40
13570;BMP180;6856;51.460;7.158;2023-04-24T03:24:29;98963.00;;;13.40
13570;BMP180;6856;51.460;7.158;2023-04-24T03:27:05;98966.00;;;13.40
13570;BMP180;6856;51.460;7.158;2023-04-24T03:29:41;98966.00;;;13.40
13570;BMP180;6856;51.460;7.158;2023-04-24T03:32:20;98968.00;;;13.40
13570;BMP180;6856;51.460;7.158;2023-04-24T03:34:55;98951.00;;;13.50
13570;BMP180;6856;51.460;7.158;2023-04-24T03:37:29;98956.00;;;13.50
13570;BMP180;6856;51.460;7.158;2023-04-24T03:40:06;98956.00;;;13.40
13570;BMP180;6856;51.460;7.158;2023-04-24T03:42:43;98961.00;;;13.40
13570;BMP180;6856;51.460;7.158;2023-04-24T03:45:17;98951.00;;;13.40
13570;BMP180;6856;51.460;7.158;2023-04-24T03:47:50;98959.00;;;13.40
13570;BMP180;6856;51.460;7.158;2023-04-24T03:50:25;98958.00;;;13.40
13570;BMP180;6856;51.460;7.158;2023-04-24T03:52:58;98956.00;;;13.40
13570;BMP180;6856;51.460;7.158;2023-04-24T03:55:32;98961.00;;;13.40
13570;BMP180;6856;51.460;7.158;2023-04-24T03:58:08;98956.00;;;13.40
13570;BMP180;6856;51.460;7.158;2023-04-24T04:00:44;98963.00;;;13.40
13570;BMP180;6856;51.460;7.158;2023-04-24T04:03:23;98963.00;;;13.40
13570;BMP180;6856;51.460;7.158;2023-04-24T04:05:58;98961.00;;;13.40
13570;BMP180;6856;51.460;7.158;2023-04-24T04:08:32;98963.00;;;13.40
13570;BMP180;6856;51.460;7.158;2023-04-24T04:11:06;98965.00;;;13.40
13570;BMP180;6856;51.460;7.158;2023-04-24T04:13:41;98966.00;;;13.40
13570;BMP180;6856;51.460;7.158;2023-04-24T04:16:15;98971.00;;;13.40
13570;BMP180;6856;51.460;7.158;2023-04-24T04:18:49;98971.00;;;13.40
13570;BMP180;6856;51.460;7.158;2023-04-24T04:21:23;98971.00;;;13.40
13570;BMP180;6856;51.460;7.158;2023-04-24T04:23:59;98972.00;;;13.40
13570;BMP180;6856;51.460;7.158;2023-04-24T04:26:38;98972.00;;;13.40
13570;BMP180;6856;51.460;7.158;2023-04-24T04:29:15;98976.00;;;13.40
13570;BMP180;6856;51.460;7.158;2023-04-24T04:31:51;98982.00;;;13.40
13570;BMP180;6856;51.460;7.158;2023-04-24T04:34:27;98987.00;;;13.50
13570;BMP180;6856;51.460;7.158;2023-04-24T04:37:01;98980.00;;;13.50
13570;BMP180;6856;51.460;7.158;2023-04-24T04:39:36;98989.00;;;13.50
13570;BMP180;6856;51.460;7.158;2023-04-24T04:42:10;98989.00;;;13.50
13570;BMP180;6856;51.460;7.158;2023-04-24T04:44:45;98995.00;;;13.50
13570;BMP180;6856;51.460;7.158;2023-04-24T04:47:21;98991.00;;;13.50
13570;BMP180;6856;51.460;7.158;2023-04-24T04:49:56;98990.00;;;13.50
13570;BMP180;6856;51.460;7.158;2023-04-24T04:52:30;98991.00;;;13.50
13570;BMP180;6856;51.460;7.158;2023-04-24T04:55:09;98981.00;;;13.50
13570;BMP180;6856;51.460;7.158;2023-04-24T04:57:43;98982.00;;;13.50
13570;BMP180;6856;51.460;7.158;2023-04-24T05:00:19;98990.00;;;13.50
13570;BMP180;6856;51.460;7.158;2023-04-24T05:02:53;98983.00;;;13.50
13570;BMP180;6856;51.460;7.158;2023-04-24T05:05:40;98987.00;;;13.50
13570;BMP180;6856;51.460;7.158;2023-04-24T05:08:19;98994.00;;;13.50
13570;BMP180;6856;51.460;7.158;2023-04-24T05:10:59;98989.00;;;13.50
13570;BMP180;6856;51.460;7.158;2023-04-24T05:13:32;98987.00;;;13.50
13570;BMP180;6856;51.460;7.158;2023-04-24T05:16:13;98988.00;;;13.50
13570;BMP180;6856;51.460;7.158;2023-04-24T05:18:47;98994.00;;;13.50
13570;BMP180;6856;51.460;7.158;2023-04-24T05:21:21;98990.00;;;13.50
13570;BMP180;6856;51.460;7.158;2023-04-24T05:23:55;98999.00;;;13.50
13570;BMP180;6856;51.460;7.158;2023-04-24T05:26:35;98995.00;;;13.50
13570;BMP180;6856;51.460;7.158;2023-04-24T05:29:10;98993.00;;;13.50
13570;BMP180;6856;51.460;7.158;2023-04-24T05:31:45;99001.00;;;13.50
13570;BMP180;6856;51.460;7.158;2023-04-24T05:34:25;99006.00;;;13.40
13570;BMP180;6856;51.460;7.158;2023-04-24T05:36:59;99008.00;;;13.40
13570;BMP180;6856;51.460;7.158;2023-04-24T05:39:33;99025.00;;;13.40
13570;BMP180;6856;51.460;7.158;2023-04-24T05:42:07;99010.00;;;13.40
13570;BMP180;6856;51.460;7.158;2023-04-24T05:44:41;99008.00;;;13.30
13570;BMP180;6856;51.460;7.158;2023-04-24T05:47:17;99016.00;;;13.20
13570;BMP180;6856;51.460;7.158;2023-04-24T05:49:51;99009.00;;;13.20
13570;BMP180;6856;51.460;7.158;2023-04-24T05:52:32;99010.00;;;13.20
13570;BMP180;6856;51.460;7.158;2023-04-24T05:55:07;98993.00;;;13.10
13570;BMP180;6856;51.460;7.158;2023-04-24T05:57:40;98996.00;;;13.10
13570;BMP180;6856;51.460;7.158;2023-04-24T06:00:17;99009.00;;;13.10
13570;BMP180;6856;51.460;7.158;2023-04-24T06:02:53;99007.00;;;13.10
13570;BMP180;6856;51.460;7.158;2023-04-24T06:05:27;99002.00;;;13.00
13570;BMP180;6856;51.460;7.158;2023-04-24T06:08:02;99001.00;;;13.00
13570;BMP180;6856;51.460;7.158;2023-04-24T06:10:37;99003.00;;;13.00
13570;BMP180;6856;51.460;7.158;2023-04-24T06:13:11;99006.00;;;13.00
13570;BMP180;6856;51.460;7.158;2023-04-24T06:15:45;99013.00;;;13.00
13570;BMP180;6856;51.460;7.158;2023-04-24T06:18:30;98997.00;;;13.00
13570;BMP180;6856;51.460;7.158;2023-04-24T06:21:05;99002.00;;;13.00
13570;BMP180;6856;51.460;7.158;2023-04-24T06:23:39;99013.00;;;12.90
13570;BMP180;6856;51.460;7.158;2023-04-24T06:26:13;99011.00;;;12.90
13570;BMP180;6856;51.460;7.158;2023-04-24T06:28:47;99012.00;;;12.90
13570;BMP180;6856;51.460;7.158;2023-04-24T06:31:28;99017.00;;;12.90
13570;BMP180;6856;51.460;7.158;2023-04-24T06:34:04;99020.00;;;13.00
13570;BMP180;6856;51.460;7.158;2023-04-24T06:36:38;99006.00;;;13.00
13570;BMP180;6856;51.460;7.158;2023-04-24T06:39:12;99023.00;;;13.00
13570;BMP180;6856;51.460;7.158;2023-04-24T06:41:46;99012.00;;;12.90
13570;BMP180;6856;51.460;7.158;2023-04-24T06:44:20;98988.00;;;12.90
13570;BMP180;6856;51.460;7.158;2023-04-24T06:46:54;99003.00;;;12.90
13570;BMP180;6856;51.460;7.158;2023-04-24T06:49:29;99006.00;;;12.90
13570;BMP180;6856;51.460;7.158;2023-04-24T06:52:04;99012.00;;;12.90
13570;BMP180;6856;51.460;7.158;2023-04-24T06:54:41;99026.00;;;12.90
13570;BMP180;6856;51.460;7.158;2023-04-24T06:57:17;99012.00;;;12.90
13570;BMP180;6856;51.460;7.158;2023-04-24T06:59:51;99000.00;;;12.90
13570;BMP180;6856;51.460;7.158;2023-04-24T07:02:25;99005.00;;;12.90
13570;BMP180;6856;51.460;7.158;2023-04-24T07:05:00;98999.00;;;12.90
13570;BMP180;6856;51.460;7.158;2023-04-24T07:07:34;98997.00;;;12.90
13570;BMP180;6856;51.460;7.158;2023-04-24T07:10:10;99009.00;;;12.90
13570;BMP180;6856;51.460;7.158;2023-04-24T07:12:43;99004.00;;;12.90
13570;BMP180;6856;51.460;7.158;2023-04-24T07:15:17;99000.00;;;12.90
13570;BMP180;6856;51.460;7.158;2023-04-24T07:17:52;99009.00;;;12.90
13570;BMP180;6856;51.460;7.158;2023-04-24T07:20:27;99014.00;;;12.90
13570;BMP180;6856;51.460;7.158;2023-04-24T07:23:01;99006.00;;;12.90
13570;BMP180;6856;51.460;7.158;2023-04-24T07:25:35;98996.00;;;12.90
13570;BMP180;6856;51.460;7.158;2023-04-24T07:28:10;99009.00;;;12.90
13570;BMP180;6856;51.460;7.158;2023-04-24T07:30:47;98998.00;;;12.90
13570;BMP180;6856;51.460;7.158;2023-04-24T07:33:21;99007.00;;;12.90
13570;BMP180;6856;51.460;7.158;2023-04-24T07:35:56;99003.00;;;12.90
13570;BMP180;6856;51.460;7.158;2023-04-24T07:38:32;98999.00;;;12.90
13570;BMP180;6856;51.460;7.158;2023-04-24T07:41:06;99013.00;;;12.90
13570;BMP180;6856;51.460;7.158;2023-04-24T07:43:41;99010.00;;;12.90
13570;BMP180;6856;51.460;7.158;2023-04-24T07:46:18;99017.00;;;12.90
13570;BMP180;6856;51.460;7.158;2023-04-24T07:48:53;99026.00;;;12.90
13570;BMP180;6856;51.460;7.158;2023-04-24T07:51:45;99031.00;;;12.90
13570;BMP180;6856;51.460;7.158;2023-04-24T07:54:19;99022.00;;;13.00
13570;BMP180;6856;51.460;7.158;2023-04-24T07:56:53;99025.00;;;12.90
13570;BMP180;6856;51.460;7.158;2023-04-24T07:59:27;99026.00;;;13.00
13570;BMP180;6856;51.460;7.158;2023-04-24T08:02:00;99037.00;;;13.00
13570;BMP180;6856;51.460;7.158;2023-04-24T08:04:34;99037.00;;;13.00
13570;BMP180;6856;51.460;7.158;2023-04-24T08:07:10;99036.00;;;13.00
13570;BMP180;6856;51.460;7.158;2023-04-24T08:09:45;99052.00;;;12.90
13570;BMP180;6856;51.460;7.158;2023-04-24T08:12:19;99049.00;;;12.90
13570;BMP180;6856;51.460;7.158;2023-04-24T08:14:53;99055.00;;;12.90
13570;BMP180;6856;51.460;7.158;2023-04-24T08:17:27;99047.00;;;12.90
13570;BMP180;6856;51.460;7.158;2023-04-24T08:20:05;99050.00;;;12.90
13570;BMP180;6856;51.460;7.158;2023-04-24T08:22:44;99060.00;;;12.80
13570;BMP180;6856;51.460;7.158;2023-04-24T08:25:19;99061.00;;;12.70
13570;BMP180;6856;51.460;7.158;2023-04-24T08:27:55;99058.00;;;12.70
13570;BMP180;6856;51.460;7.158;2023-04-24T08:30:29;99070.00;;;12.70
13570;BMP180;6856;51.460;7.158;2023-04-24T08:33:05;99067.00;;;12.70
13570;BMP180;6856;51.460;7.158;2023-04-24T08:35:40;99070.00;;;12.70
13570;BMP180;6856;51.460;7.158;2023-04-24T08:38:15;99078.00;;;12.60
13570;BMP180;6856;51.460;7.158;2023-04-24T08:40:49;99083.00;;;12.60
13570;BMP180;6856;51.460;7.158;2023-04-24T08:43:25;99079.00;;;12.60
13570;BMP180;6856;51.460;7.158;2023-04-24T08:46:00;99086.00;;;12.50
13570;BMP180;6856;51.460;7.158;2023-04-24T08:48:44;99071.00;;;12.40
13570;BMP180;6856;51.460;7.158;2023-04-24T08:51:19;99081.00;;;12.50
13570;BMP180;6856;51.460;7.158;2023-04-24T08:54:02;99070.00;;;12.20
13570;BMP180;6856;51.460;7.158;2023-04-24T08:56:38;99096.00;;;12.40
13570;BMP180;6856;51.460;7.158;2023-04-24T08:59:15;99095.00;;;12.40
13570;BMP180;6856;51.460;7.158;2023-04-24T09:01:54;99077.00;;;11.90
13570;BMP180;6856;51.460;7.158;2023-04-24T09:04:29;99102.00;;;12.40
13570;BMP180;6856;51.460;7.158;2023-04-24T09:07:07;99106.00;;;12.40
13570;BMP180;6856;51.460;7.158;2023-04-24T09:09:43;99111.00;;;12.40
13570;BMP180;6856;51.460;7.158;2023-04-24T09:12:20;99121.00;;;12.40
13570;BMP180;6856;51.460;7.158;2023-04-24T09:14:56;99121.00;;;12.40
13570;BMP180;6856;51.460;7.158;2023-04-24T09:17:35;99137.00;;;12.40
13570;BMP180;6856;51.460;7.158;2023-04-24T09:20:23;99129.00;;;12.50
13570;BMP180;6856;51.460;7.158;2023-04-24T09:22:57;99158.00;;;12.40
13570;BMP180;6856;51.460;7.158;2023-04-24T09:25:34;99158.00;;;12.60
13570;BMP180;6856;51.460;7.158;2023-04-24T09:28:09;99152.00;;;12.60
13570;BMP180;6856;51.460;7.158;2023-04-24T09:30:43;99170.00;;;12.60
13570;BMP180;6856;51.460;7.158;2023-04-24T09:33:19;99177.00;;;12.70
13570;BMP180;6856;51.460;7.158;2023-04-24T09:35:52;99180.00;;;12.70
13570;BMP180;6856;51.460;7.158;2023-04-24T09:38:35;99182.00;;;12.70
13570;BMP180;6856;51.460;7.158;2023-04-24T09:41:14;99155.00;;;12.80
13570;BMP180;6856;51.460;7.158;2023-04-24T09:43:47;99192.00;;;12.80
13570;BMP180;6856;51.460;7.158;2023-04-24T09:46:29;99215.00;;;12.70
13570;BMP180;6856;51.460;7.158;2023-04-24T09:49:09;99227.00;;;12.70
13570;BMP180;6856;51.460;7.158;2023-04-24T09:51:44;99249.00;;;12.70
13570;BMP180;6856;51.460;7.158;2023-04-24T09:54:20;99253.00;;;12.70
13570;BMP180;6856;51.460;7.158;2023-04-24T09:56:56;99266.00;;;12.60
13570;BMP180;6856;51.460;7.158;2023-04-24T09:59:32;99275.00;;;12.70
13570;BMP180;6856;51.460;7.158;2023-04-24T10:02:17;99265.00;;;12.60
13570;BMP180;6856;51.460;7.158;2023-04-24T10:04:57;99305.00;;;12.60
13570;BMP180;6856;51.460;7.158;2023-04-24T10:07:33;99290.00;;;12.50
13570;BMP180;6856;51.460;7.158;2023-04-24T10:10:08;99298.00;;;12.50
13570;BMP180;6856;51.460;7.158;2023-04-24T10:12:54;99319.00;;;12.50
13570;BMP180;6856;51.460;7.158;2023-04-24T10:15:28;99326.00;;;12.50
13570;BMP180;6856;51.460;7.158;2023-04-24T10:18:04;99342.00;;;12.50
13570;BMP180;6856;51.460;7.158;2023-04-24T10:20:40;99342.00;;;12.50
13570;BMP180;6856;51.460;7.158;2023-04-24T10:23:14;99344.00;;;12.50
13570;BMP180;6856;51.460;7.158;2023-04-24T10:25:50;99320.00;;;12.50
13570;BMP180;6856;51.460;7.158;2023-04-24T10:28:29;99344.00;;;12.40
13570;BMP180;6856;51.460;7.158;2023-04-24T10:31:04;99340.00;;;12.50
13570;BMP180;6856;51.460;7.158;2023-04-24T10:33:39;99358.00;;;12.50
13570;BMP180;6856;51.460;7.158;2023-04-24T10:36:15;99356.00;;;12.50
13570;BMP180;6856;51.460;7.158;2023-04-24T10:38:52;99372.00;;;12.50
13570;BMP180;6856;51.460;7.158;2023-04-24T10:41:27;99362.00;;;12.50
13570;BMP180;6856;51.460;7.158;2023-04-24T10:44:09;99387.00;;;12.60
13570;BMP180;6856;51.460;7.158;2023-04-24T10:46:52;99381.00;;;12.60
13570;BMP180;6856;51.460;7.158;2023-04-24T10:49:31;99387.00;;;12.60
13570;BMP180;6856;51.460;7.158;2023-04-24T10:52:05;99392.00;;;12.60
13570;BMP180;6856;51.460;7.158;2023-04-24T10:54:44;99393.00;;;12.50
13570;BMP180;6856;51.460;7.158;2023-04-24T10:57:28;99394.00;;;12.50
13570;BMP180;6856;51.460;7.158;2023-04-24T11:00:20;99400.00;;;12.50
13570;BMP180;6856;51.460;7.158;2023-04-24T11:02:54;99422.00;;;12.50
13570;BMP180;6856;51.460;7.158;2023-04-24T11:05:50;99384.00;;;12.60
13570;BMP180;6856;51.460;7.158;2023-04-24T11:08:30;99412.00;;;12.60
13570;BMP180;6856;51.460;7.158;2023-04-24T11:11:12;99421.00;;;12.60
13570;BMP180;6856;51.460;7.158;2023-04-24T11:14:07;99432.00;;;12.70
13570;BMP180;6856;51.460;7.158;2023-04-24T11:16:51;99411.00;;;12.70
13570;BMP180;6856;51.460;7.158;2023-04-24T11:19:27;99434.00;;;12.70
13570;BMP180;6856;51.460;7.158;2023-04-24T11:22:03;99439.00;;;12.70
13570;BMP180;6856;51.460;7.158;2023-04-24T11:24:48;99441.00;;;12.80
13570;BMP180;6856;51.460;7.158;2023-04-24T11:27:23;99436.00;;;12.80
13570;BMP180;6856;51.460;7.158;2023-04-24T11:30:01;99448.00;;;12.80
13570;BMP180;6856;51.460;7.158;2023-04-24T11:32:39;99448.00;;;12.80
13570;BMP180;6856;51.460;7.158;2023-04-24T11:35:16;99441.00;;;12.90
13570;BMP180;6856;51.460;7.158;2023-04-24T11:37:53;99455.00;;;12.90
13570;BMP180;6856;51.460;7.158;2023-04-24T11:40:48;99452.00;;;13.00
13570;BMP180;6856;51.460;7.158;2023-04-24T11:43:22;99448.00;;;13.10
13570;BMP180;6856;51.460;7.158;2023-04-24T11:45:59;99451.00;;;13.10
13570;BMP180;6856;51.460;7.158;2023-04-24T11:48:36;99457.00;;;13.20
13570;BMP180;6856;51.460;7.158;2023-04-24T11:51:12;99461.00;;;13.20
13570;BMP180;6856;51.460;7.158;2023-04-24T11:53:46;99468.00;;;13.20
13570;BMP180;6856;51.460;7.158;2023-04-24T11:56:29;99475.00;;;13.20
13570;BMP180;6856;51.460;7.158;2023-04-24T11:59:04;99479.00;;;13.20
13570;BMP180;6856;51.460;7.158;2023-04-24T12:01:43;99482.00;;;13.20
13570;BMP180;6856;51.460;7.158;2023-04-24T12:04:19;99477.00;;;13.10
13570;BMP180;6856;51.460;7.158;2023-04-24T12:07:00;99491.00;;;13.10
13570;BMP180;6856;51.460;7.158;2023-04-24T12:09:44;99490.00;;;13.10
13570;BMP180;6856;51.460;7.158;2023-04-24T12:12:19;99497.00;;;13.10
13570;BMP180;6856;51.460;7.158;2023-04-24T12:14:54;99504.00;;;13.10
13570;BMP180;6856;51.460;7.158;2023-04-24T12:17:32;99503.00;;;13.10
13570;BMP180;6856;51.460;7.158;2023-04-24T12:20:14;99505.00;;;13.20
13570;BMP180;6856;51.460;7.158;2023-04-24T12:22:53;99500.00;;;13.20
13570;BMP180;6856;51.460;7.158;2023-04-24T12:25:30;99501.00;;;13.30
13570;BMP180;6856;51.460;7.158;2023-04-24T12:28:12;99520.00;;;13.30
13570;BMP180;6856;51.460;7.158;2023-04-24T12:30:48;99518.00;;;13.40
13570;BMP180;6856;51.460;7.158;2023-04-24T12:33:24;99521.00;;;13.40
13570;BMP180;6856;51.460;7.158;2023-04-24T12:35:59;99530.00;;;13.50
13570;BMP180;6856;51.460;7.158;2023-04-24T12:38:33;99525.00;;;13.50
13570;BMP180;6856;51.460;7.158;2023-04-24T12:41:17;99547.00;;;13.50
13570;BMP180;6856;51.460;7.158;2023-04-24T12:43:52;99535.00;;;13.60
13570;BMP180;6856;51.460;7.158;2023-04-24T12:46:27;99525.00;;;13.60
13570;BMP180;6856;51.460;7.158;2023-04-24T12:49:02;99541.00;;;13.60
13570;BMP180;6856;51.460;7.158;2023-04-24T12:51:37;99547.00;;;13.60
13570;BMP180;6856;51.460;7.158;2023-04-24T12:54:10;99538.00;;;13.50
13570;BMP180;6856;51.460;7.158;2023-04-24T12:56:44;99556.00;;;13.60
13570;BMP180;6856;51.460;7.158;2023-04-24T12:59:18;99555.00;;;13.50
13570;BMP180;6856;51.460;7.158;2023-04-24T13:01:52;99544.00;;;13.50
13570;BMP180;6856;51.460;7.158;2023-04-24T13:04:26;99554.00;;;13.50
13570;BMP180;6856;51.460;7.158;2023-04-24T13:07:02;99562.00;;;13.50
13570;BMP180;6856;51.460;7.158;2023-04-24T13:09:35;99567.00;;;13.50
13570;BMP180;6856;51.460;7.158;2023-04-24T13:12:10;99557.00;;;13.60
13570;BMP180;6856;51.460;7.158;2023-04-24T13:14:44;99557.00;;;13.60
13570;BMP180;6856;51.460;7.158;2023-04-24T13:17:17;99566.00;;;13.70
13570;BMP180;6856;51.460;7.158;2023-04-24T13:19:55;99566.00;;;13.80
13570;BMP180;6856;51.460;7.158;2023-04-24T13:22:31;99571.00;;;13.80
13570;BMP180;6856;51.460;7.158;2023-04-24T13:25:06;99579.00;;;13.90
13570;BMP180;6856;51.460;7.158;2023-04-24T13:27:41;99570.00;;;13.90
13570;BMP180;6856;51.460;7.158;2023-04-24T13:30:15;99572.00;;;13.90
13570;BMP180;6856;51.460;7.158;2023-04-24T13:32:49;99576.00;;;14.00
13570;BMP180;6856;51.460;7.158;2023-04-24T13:35:26;99585.00;;;14.00
13570;BMP180;6856;51.460;7.158;2023-04-24T13:38:01;99569.00;;;14.00
13570;BMP180;6856;51.460;7.158;2023-04-24T13:40:38;99576.00;;;14.00
13570;BMP180;6856;51.460;7.158;2023-04-24T13:43:11;99586.00;;;14.00
13570;BMP180;6856;51.460;7.158;2023-04-24T13:45:45;99587.00;;;14.10
13570;BMP180;6856;51.460;7.158;2023-04-24T13:48:20;99584.00;;;14.10
13570;BMP180;6856;51.460;7.158;2023-04-24T13:50:54;99595.00;;;14.10
13570;BMP180;6856;51.460;7.158;2023-04-24T13:53:29;99590.00;;;14.00
13570;BMP180;6856;51.460;7.158;2023-04-24T13:56:03;99592.00;;;14.00
13570;BMP180;6856;51.460;7.158;2023-04-24T13:58:38;99592.00;;;14.00
13570;BMP180;6856;51.460;7.158;2023-04-24T14:01:13;99577.00;;;14.00
13570;BMP180;6856;51.460;7.158;2023-04-24T14:03:47;99585.00;;;14.00
13570;BMP180;6856;51.460;7.158;2023-04-24T14:06:23;99580.00;;;14.00
13570;BMP180;6856;51.460;7.158;2023-04-24T14:08:58;99590.00;;;14.10
13570;BMP180;6856;51.460;7.158;2023-04-24T14:11:34;99585.00;;;14.10
13570;BMP180;6856;51.460;7.158;2023-04-24T14:14:08;99582.00;;;14.20
13570;BMP180;6856;51.460;7.158;2023-04-24T14:16:41;99589.00;;;14.20
13570;BMP180;6856;51.460;7.158;2023-04-24T14:19:15;99596.00;;;14.20
13570;BMP180;6856;51.460;7.158;2023-04-24T14:21:49;99584.00;;;14.30
13570;BMP180;6856;51.460;7.158;2023-04-24T14:24:25;99592.00;;;14.30
13570;BMP180;6856;51.460;7.158;2023-04-24T14:26:59;99594.00;;;14.30
13570;BMP180;6856;51.460;7.158;2023-04-24T14:29:33;99597.00;;;14.40
13570;BMP180;6856;51.460;7.158;2023-04-24T14:32:07;99580.00;;;14.40
13570;BMP180;6856;51.460;7.158;2023-04-24T14:34:41;99599.00;;;14.40
13570;BMP180;6856;51.460;7.158;2023-04-24T14:37:15;99574.00;;;14.40
13570;BMP180;6856;51.460;7.158;2023-04-24T14:39:50;99592.00;;;14.40
13570;BMP180;6856;51.460;7.158;2023-04-24T14:42:44;99609.00;;;14.50
13570;BMP180;6856;51.460;7.158;2023-04-24T14:45:18;99600.00;;;14.50
13570;BMP180;6856;51.460;7.158;2023-04-24T14:47:53;99601.00;;;14.50
13570;BMP180;6856;51.460;7.158;2023-04-24T14:50:27;99609.00;;;14.50
13570;BMP180;6856;51.460;7.158;2023-04-24T14:53:01;99607.00;;;14.50
13570;BMP180;6856;51.460;7.158;2023-04-24T14:55:36;99608.00;;;14.50
13570;BMP180;6856;51.460;7.158;2023-04-24T14:58:10;99611.00;;;14.40
13570;BMP180;6856;51.460;7.158;2023-04-24T15:00:44;99625.00;;;14.40
13570;BMP180;6856;51.460;7.158;2023-04-24T15:03:19;99626.00;;;14.40
13570;BMP180;6856;51.460;7.158;2023-04-24T15:05:54;99636.00;;;14.40
13570;BMP180;6856;51.460;7.158;2023-04-24T15:08:28;99642.00;;;14.30
13570;BMP180;6856;51.460;7.158;2023-04-24T15:11:04;99658.00;;;14.30